sensor_id;sensor_type;location;lat;lon;timestamp;P1;durP1;ratioP1;P2;durP2;ratioP2
23230;SDS011;11784;49.818;8.632;2022-07-21T00:01:51;7.05;;;3.47;;
23230;SDS011;11784;49.818;8.632;2022-07-21T00:04:18;4.85;;;3.00;;
23230;SDS011;11784;49.818;8.632;2022-07-21T00:06:45;6.85;;;3.05;;
23230;SDS011;11784;49.818;8.632;2022-07-21T00:09:11;7.25;;;3.33;;
23230;SDS011;11784;49.818;8.632;2022-07-21T00:11:38;5.40;;;3.20;;
23230;SDS011;11784;49.818;8.632;2022-07-21T00:14:05;7.22;;;2.83;;
23230;SDS011;11784;49.818;8.632;2022-07-21T00:16:33;4.32;;;2.83;;
23230;SDS011;11784;49.818;8.632;2022-07-21T00:18:59;4.75;;;2.78;;
23230;SDS011;11784;49.818;8.632;2022-07-21T00:21:27;8.73;;;4.35;;
23230;SDS011;11784;49.818;8.632;2022-07-21T00:23:53;8.13;;;4.00;;
23230;SDS011;11784;49.818;8.632;2022-07-21T00:26:19;7.72;;;3.85;;
23230;SDS011;11784;49.818;8.632;2022-07-21T00:28:45;6.00;;;3.17;;
23230;SDS011;11784;49.818;8.632;2022-07-21T00:31:10;6.25;;;3.28;;
23230;SDS011;11784;49.818;8.632;2022-07-21T00:33:36;5.35;;;3.10;;
23230;SDS011;11784;49.818;8.632;2022-07-21T00:36:01;5.65;;;3.10;;
23230;SDS011;11784;49.818;8.632;2022-07-21T00:38:27;3.75;;;2.55;;
23230;SDS011;11784;49.818;8.632;2022-07-21T00:40:53;9.10;;;2.92;;
23230;SDS011;11784;49.818;8.632;2022-07-21T00:43:19;11.32;;;3.40;;
23230;SDS011;11784;49.818;8.632;2022-07-21T00:45:45;6.43;;;3.35;;
23230;SDS011;11784;49.818;8.632;2022-07-21T00:48:11;6.53;;;3.65;;
23230;SDS011;11784;49.818;8.632;2022-07-21T00:50:36;5.38;;;3.42;;
23230;SDS011;11784;49.818;8.632;2022-07-21T00:53:02;5.90;;;3.90;;
23230;SDS011;11784;49.818;8.632;2022-07-21T00:55:28;5.13;;;3.42;;
23230;SDS011;11784;49.818;8.632;2022-07-21T00:57:53;6.82;;;3.28;;
23230;SDS011;11784;49.818;8.632;2022-07-21T01:00:20;6.50;;;3.70;;
23230;SDS011;11784;49.818;8.632;2022-07-21T01:02:48;6.13;;;3.22;;
23230;SDS011;11784;49.818;8.632;2022-07-21T01:05:14;7.03;;;3.95;;
23230;SDS011;11784;49.818;8.632;2022-07-21T01:07:45;9.77;;;3.70;;
23230;SDS011;11784;49.818;8.632;2022-07-21T01:10:13;6.18;;;3.45;;
23230;SDS011;11784;49.818;8.632;2022-07-21T01:12:40;7.25;;;3.50;;
23230;SDS011;11784;49.818;8.632;2022-07-21T01:15:07;6.32;;;3.67;;
23230;SDS011;11784;49.818;8.632;2022-07-21T01:17:35;5.03;;;3.17;;
23230;SDS011;11784;49.818;8.632;2022-07-21T01:20:03;8.23;;;3.58;;
23230;SDS011;11784;49.818;8.632;2022-07-21T01:22:31;9.90;;;3.92;;
23230;SDS011;11784;49.818;8.632;2022-07-21T01:24:57;8.15;;;4.13;;
23230;SDS011;11784;49.818;8.632;2022-07-21T01:27:25;7.80;;;4.70;;
23230;SDS011;11784;49.818;8.632;2022-07-21T01:29:51;7.28;;;4.68;;
23230;SDS011;11784;49.818;8.632;2022-07-21T01:32:16;9.57;;;4.40;;
23230;SDS011;11784;49.818;8.632;2022-07-21T01:34:42;13.82;;;4.03;;
23230;SDS011;11784;49.818;8.632;2022-07-21T01:37:07;9.45;;;4.72;;
23230;SDS011;11784;49.818;8.632;2022-07-21T01:39:33;7.32;;;4.70;;
23230;SDS011;11784;49.818;8.632;2022-07-21T01:42:17;8.38;;;4.80;;
23230;SDS011;11784;49.818;8.632;2022-07-21T01:44:42;8.98;;;4.60;;
23230;SDS011;11784;49.818;8.632;2022-07-21T01:47:08;12.07;;;4.85;;
23230;SDS011;11784;49.818;8.632;2022-07-21T01:49:33;17.73;;;5.82;;
23230;SDS011;11784;49.818;8.632;2022-07-21T01:51:59;9.43;;;4.60;;
23230;SDS011;11784;49.818;8.632;2022-07-21T01:54:25;10.95;;;5.65;;
23230;SDS011;11784;49.818;8.632;2022-07-21T01:56:51;9.02;;;4.85;;
23230;SDS011;11784;49.818;8.632;2022-07-21T01:59:16;10.48;;;4.85;;
23230;SDS011;11784;49.818;8.632;2022-07-21T02:01:42;8.40;;;4.22;;
23230;SDS011;11784;49.818;8.632;2022-07-21T02:04:08;7.15;;;4.45;;
23230;SDS011;11784;49.818;8.632;2022-07-21T02:06:33;7.47;;;4.32;;
23230;SDS011;11784;49.818;8.632;2022-07-21T02:08:59;7.25;;;4.80;;
23230;SDS011;11784;49.818;8.632;2022-07-21T02:11:25;8.48;;;4.60;;
23230;SDS011;11784;49.818;8.632;2022-07-21T02:13:51;7.82;;;4.53;;
23230;SDS011;11784;49.818;8.632;2022-07-21T02:16:16;8.85;;;4.63;;
23230;SDS011;11784;49.818;8.632;2022-07-21T02:18:43;8.43;;;5.00;;
23230;SDS011;11784;49.818;8.632;2022-07-21T02:21:09;9.18;;;5.75;;
23230;SDS011;11784;49.818;8.632;2022-07-21T02:23:34;9.70;;;5.13;;
23230;SDS011;11784;49.818;8.632;2022-07-21T02:26:00;9.88;;;5.47;;
23230;SDS011;11784;49.818;8.632;2022-07-21T02:28:26;12.00;;;5.45;;
23230;SDS011;11784;49.818;8.632;2022-07-21T02:30:52;10.60;;;4.82;;
23230;SDS011;11784;49.818;8.632;2022-07-21T02:33:20;9.98;;;5.85;;
23230;SDS011;11784;49.818;8.632;2022-07-21T02:35:45;13.18;;;6.07;;
23230;SDS011;11784;49.818;8.632;2022-07-21T02:38:11;8.38;;;4.78;;
23230;SDS011;11784;49.818;8.632;2022-07-21T02:40:37;9.40;;;5.07;;
23230;SDS011;11784;49.818;8.632;2022-07-21T02:43:03;13.00;;;6.13;;
23230;SDS011;11784;49.818;8.632;2022-07-21T02:45:30;8.10;;;4.72;;
23230;SDS011;11784;49.818;8.632;2022-07-21T02:47:57;13.02;;;5.60;;
23230;SDS011;11784;49.818;8.632;2022-07-21T02:50:32;8.57;;;4.95;;
23230;SDS011;11784;49.818;8.632;2022-07-21T02:53:03;11.35;;;5.82;;
23230;SDS011;11784;49.818;8.632;2022-07-21T02:55:30;10.55;;;4.63;;
23230;SDS011;11784;49.818;8.632;2022-07-21T02:58:06;7.95;;;4.82;;
23230;SDS011;11784;49.818;8.632;2022-07-21T03:00:49;10.90;;;4.68;;
23230;SDS011;11784;49.818;8.632;2022-07-21T03:03:19;10.65;;;5.35;;
23230;SDS011;11784;49.818;8.632;2022-07-21T03:05:46;9.75;;;5.00;;
23230;SDS011;11784;49.818;8.632;2022-07-21T03:08:12;9.68;;;4.97;;
23230;SDS011;11784;49.818;8.632;2022-07-21T03:10:38;17.27;;;5.95;;
23230;SDS011;11784;49.818;8.632;2022-07-21T03:13:04;7.97;;;5.18;;
23230;SDS011;11784;49.818;8.632;2022-07-21T03:15:30;9.00;;;4.53;;
23230;SDS011;11784;49.818;8.632;2022-07-21T03:17:56;8.13;;;4.75;;
23230;SDS011;11784;49.818;8.632;2022-07-21T03:20:26;10.15;;;4.60;;
23230;SDS011;11784;49.818;8.632;2022-07-21T03:22:53;8.40;;;4.45;;
23230;SDS011;11784;49.818;8.632;2022-07-21T03:25:19;7.57;;;4.28;;
23230;SDS011;11784;49.818;8.632;2022-07-21T03:27:45;9.65;;;5.05;;
23230;SDS011;11784;49.818;8.632;2022-07-21T03:30:12;7.75;;;4.70;;
23230;SDS011;11784;49.818;8.632;2022-07-21T03:32:38;6.55;;;3.88;;
23230;SDS011;11784;49.818;8.632;2022-07-21T03:35:04;7.70;;;4.30;;
23230;SDS011;11784;49.818;8.632;2022-07-21T03:37:32;9.23;;;5.10;;
23230;SDS011;11784;49.818;8.632;2022-07-21T03:39:58;8.57;;;4.82;;
23230;SDS011;11784;49.818;8.632;2022-07-21T03:42:23;7.05;;;3.63;;
23230;SDS011;11784;49.818;8.632;2022-07-21T03:44:49;4.50;;;2.92;;
23230;SDS011;11784;49.818;8.632;2022-07-21T03:47:15;7.78;;;3.90;;
23230;SDS011;11784;49.818;8.632;2022-07-21T03:49:40;7.40;;;3.60;;
23230;SDS011;11784;49.818;8.632;2022-07-21T03:52:06;5.45;;;2.95;;
23230;SDS011;11784;49.818;8.632;2022-07-21T03:54:32;6.68;;;3.85;;
23230;SDS011;11784;49.818;8.632;2022-07-21T03:56:57;5.60;;;3.75;;
23230;SDS011;11784;49.818;8.632;2022-07-21T03:59:23;5.28;;;3.20;;
23230;SDS011;11784;49.818;8.632;2022-07-21T04:01:48;9.77;;;4.18;;
23230;SDS011;11784;49.818;8.632;2022-07-21T04:04:13;7.35;;;3.80;;
23230;SDS011;11784;49.818;8.632;2022-07-21T04:06:39;5.55;;;3.45;;
23230;SDS011;11784;49.818;8.632;2022-07-21T04:09:05;6.32;;;3.33;;
23230;SDS011;11784;49.818;8.632;2022-07-21T04:11:30;6.00;;;2.85;;
23230;SDS011;11784;49.818;8.632;2022-07-21T04:13:56;8.13;;;3.90;;
23230;SDS011;11784;49.818;8.632;2022-07-21T04:16:22;7.57;;;4.22;;
23230;SDS011;11784;49.818;8.632;2022-07-21T04:18:48;6.50;;;2.85;;
23230;SDS011;11784;49.818;8.632;2022-07-21T04:21:14;6.18;;;2.90;;
23230;SDS011;11784;49.818;8.632;2022-07-21T04:23:39;3.50;;;2.25;;
23230;SDS011;11784;49.818;8.632;2022-07-21T04:26:05;7.25;;;2.45;;
23230;SDS011;11784;49.818;8.632;2022-07-21T04:28:31;4.35;;;2.25;;
23230;SDS011;11784;49.818;8.632;2022-07-21T04:30:56;6.53;;;2.90;;
23230;SDS011;11784;49.818;8.632;2022-07-21T04:33:22;3.55;;;2.05;;
23230;SDS011;11784;49.818;8.632;2022-07-21T04:35:47;7.20;;;2.88;;
23230;SDS011;11784;49.818;8.632;2022-07-21T04:38:13;4.57;;;2.85;;
23230;SDS011;11784;49.818;8.632;2022-07-21T04:40:39;4.75;;;2.75;;
23230;SDS011;11784;49.818;8.632;2022-07-21T04:43:05;6.30;;;3.35;;
23230;SDS011;11784;49.818;8.632;2022-07-21T04:45:31;5.95;;;3.35;;
23230;SDS011;11784;49.818;8.632;2022-07-21T04:47:57;6.20;;;2.90;;
23230;SDS011;11784;49.818;8.632;2022-07-21T04:50:23;7.10;;;3.30;;
23230;SDS011;11784;49.818;8.632;2022-07-21T04:52:50;5.63;;;3.30;;
23230;SDS011;11784;49.818;8.632;2022-07-21T04:55:17;7.63;;;3.55;;
23230;SDS011;11784;49.818;8.632;2022-07-21T04:57:45;5.20;;;3.10;;
23230;SDS011;11784;49.818;8.632;2022-07-21T05:00:16;5.30;;;3.08;;
23230;SDS011;11784;49.818;8.632;2022-07-21T05:02:44;4.95;;;2.22;;
23230;SDS011;11784;49.818;8.632;2022-07-21T05:05:10;6.30;;;3.08;;
23230;SDS011;11784;49.818;8.632;2022-07-21T05:07:36;5.32;;;2.38;;
23230;SDS011;11784;49.818;8.632;2022-07-21T05:10:03;6.95;;;2.45;;
23230;SDS011;11784;49.818;8.632;2022-07-21T05:12:29;6.07;;;2.63;;
23230;SDS011;11784;49.818;8.632;2022-07-21T05:14:55;4.35;;;3.10;;
23230;SDS011;11784;49.818;8.632;2022-07-21T05:17:20;5.25;;;2.45;;
23230;SDS011;11784;49.818;8.632;2022-07-21T05:19:46;9.10;;;2.50;;
23230;SDS011;11784;49.818;8.632;2022-07-21T05:22:15;12.13;;;2.13;;
23230;SDS011;11784;49.818;8.632;2022-07-21T05:24:43;3.05;;;2.05;;
23230;SDS011;11784;49.818;8.632;2022-07-21T05:27:09;5.93;;;1.75;;
23230;SDS011;11784;49.818;8.632;2022-07-21T05:29:35;4.63;;;2.28;;
23230;SDS011;11784;49.818;8.632;2022-07-21T05:32:00;3.25;;;1.75;;
23230;SDS011;11784;49.818;8.632;2022-07-21T05:34:26;2.85;;;1.95;;
23230;SDS011;11784;49.818;8.632;2022-07-21T05:36:51;6.47;;;2.33;;
23230;SDS011;11784;49.818;8.632;2022-07-21T05:39:18;3.47;;;2.28;;
23230;SDS011;11784;49.818;8.632;2022-07-21T05:41:43;2.47;;;1.88;;
23230;SDS011;11784;49.818;8.632;2022-07-21T05:44:09;5.10;;;2.33;;
23230;SDS011;11784;49.818;8.632;2022-07-21T05:46:34;3.63;;;2.10;;
23230;SDS011;11784;49.818;8.632;2022-07-21T05:49:00;4.88;;;2.45;;
23230;SDS011;11784;49.818;8.632;2022-07-21T05:51:25;5.13;;;2.15;;
23230;SDS011;11784;49.818;8.632;2022-07-21T05:53:51;5.30;;;2.58;;
23230;SDS011;11784;49.818;8.632;2022-07-21T05:56:16;3.72;;;2.53;;
23230;SDS011;11784;49.818;8.632;2022-07-21T05:58:42;5.45;;;2.35;;
23230;SDS011;11784;49.818;8.632;2022-07-21T06:01:07;6.13;;;2.75;;
23230;SDS011;11784;49.818;8.632;2022-07-21T06:03:37;5.65;;;2.97;;
23230;SDS011;11784;49.818;8.632;2022-07-21T06:06:15;5.22;;;3.08;;
23230;SDS011;11784;49.818;8.632;2022-07-21T06:08:43;5.35;;;2.72;;
23230;SDS011;11784;49.818;8.632;2022-07-21T06:11:10;4.90;;;2.47;;
23230;SDS011;11784;49.818;8.632;2022-07-21T06:13:37;5.28;;;3.40;;
23230;SDS011;11784;49.818;8.632;2022-07-21T06:16:04;5.00;;;2.85;;
23230;SDS011;11784;49.818;8.632;2022-07-21T06:18:31;8.15;;;2.90;;
23230;SDS011;11784;49.818;8.632;2022-07-21T06:20:56;4.82;;;2.45;;
23230;SDS011;11784;49.818;8.632;2022-07-21T06:23:22;6.78;;;2.58;;
23230;SDS011;11784;49.818;8.632;2022-07-21T06:25:48;3.85;;;2.50;;
23230;SDS011;11784;49.818;8.632;2022-07-21T06:28:15;4.13;;;2.70;;
23230;SDS011;11784;49.818;8.632;2022-07-21T06:30:40;3.88;;;2.10;;
23230;SDS011;11784;49.818;8.632;2022-07-21T06:33:06;4.18;;;2.30;;
23230;SDS011;11784;49.818;8.632;2022-07-21T06:35:31;3.60;;;2.35;;
23230;SDS011;11784;49.818;8.632;2022-07-21T06:37:57;4.38;;;2.35;;
23230;SDS011;11784;49.818;8.632;2022-07-21T06:40:23;4.53;;;2.80;;
23230;SDS011;11784;49.818;8.632;2022-07-21T06:42:48;4.60;;;3.05;;
23230;SDS011;11784;49.818;8.632;2022-07-21T06:45:14;6.15;;;3.28;;
23230;SDS011;11784;49.818;8.632;2022-07-21T06:47:39;4.15;;;2.30;;
23230;SDS011;11784;49.818;8.632;2022-07-21T06:50:05;6.28;;;3.30;;
23230;SDS011;11784;49.818;8.632;2022-07-21T06:52:32;10.60;;;3.28;;
23230;SDS011;11784;49.818;8.632;2022-07-21T06:54:59;5.88;;;2.97;;
23230;SDS011;11784;49.818;8.632;2022-07-21T06:57:24;5.72;;;2.58;;
23230;SDS011;11784;49.818;8.632;2022-07-21T06:59:50;6.88;;;2.55;;
23230;SDS011;11784;49.818;8.632;2022-07-21T07:02:16;4.10;;;2.78;;
23230;SDS011;11784;49.818;8.632;2022-07-21T07:04:41;6.63;;;3.00;;
23230;SDS011;11784;49.818;8.632;2022-07-21T07:07:08;7.07;;;3.28;;
23230;SDS011;11784;49.818;8.632;2022-07-21T07:09:34;8.18;;;3.05;;
23230;SDS011;11784;49.818;8.632;2022-07-21T07:12:00;5.38;;;2.15;;
23230;SDS011;11784;49.818;8.632;2022-07-21T07:14:33;5.05;;;2.72;;
23230;SDS011;11784;49.818;8.632;2022-07-21T07:16:59;5.68;;;3.00;;
23230;SDS011;11784;49.818;8.632;2022-07-21T07:19:27;3.42;;;1.95;;
23230;SDS011;11784;49.818;8.632;2022-07-21T07:21:53;3.88;;;2.58;;
23230;SDS011;11784;49.818;8.632;2022-07-21T07:24:18;3.78;;;2.60;;
23230;SDS011;11784;49.818;8.632;2022-07-21T07:26:44;4.38;;;2.65;;
23230;SDS011;11784;49.818;8.632;2022-07-21T07:29:09;5.32;;;3.03;;
23230;SDS011;11784;49.818;8.632;2022-07-21T07:31:35;7.05;;;2.83;;
23230;SDS011;11784;49.818;8.632;2022-07-21T07:34:01;3.90;;;2.20;;
23230;SDS011;11784;49.818;8.632;2022-07-21T07:36:27;4.07;;;2.40;;
23230;SDS011;11784;49.818;8.632;2022-07-21T07:38:54;6.38;;;2.67;;
23230;SDS011;11784;49.818;8.632;2022-07-21T07:41:21;3.42;;;2.15;;
23230;SDS011;11784;49.818;8.632;2022-07-21T07:43:48;3.83;;;2.38;;
23230;SDS011;11784;49.818;8.632;2022-07-21T07:46:14;3.42;;;2.20;;
23230;SDS011;11784;49.818;8.632;2022-07-21T07:48:40;4.15;;;2.15;;
23230;SDS011;11784;49.818;8.632;2022-07-21T07:51:07;4.00;;;2.53;;
23230;SDS011;11784;49.818;8.632;2022-07-21T07:53:33;6.13;;;2.33;;
23230;SDS011;11784;49.818;8.632;2022-07-21T07:55:59;7.50;;;3.00;;
23230;SDS011;11784;49.818;8.632;2022-07-21T07:58:24;7.20;;;2.33;;
23230;SDS011;11784;49.818;8.632;2022-07-21T08:00:50;5.85;;;2.67;;
23230;SDS011;11784;49.818;8.632;2022-07-21T08:03:16;7.75;;;2.80;;
23230;SDS011;11784;49.818;8.632;2022-07-21T08:05:42;5.00;;;2.35;;
23230;SDS011;11784;49.818;8.632;2022-07-21T08:08:07;4.03;;;2.30;;
23230;SDS011;11784;49.818;8.632;2022-07-21T08:10:33;6.50;;;2.75;;
23230;SDS011;11784;49.818;8.632;2022-07-21T08:12:59;4.50;;;2.33;;
23230;SDS011;11784;49.818;8.632;2022-07-21T08:15:24;4.93;;;2.70;;
23230;SDS011;11784;49.818;8.632;2022-07-21T08:17:50;3.88;;;2.65;;
23230;SDS011;11784;49.818;8.632;2022-07-21T08:20:16;4.35;;;2.65;;
23230;SDS011;11784;49.818;8.632;2022-07-21T08:22:41;4.97;;;2.13;;
23230;SDS011;11784;49.818;8.632;2022-07-21T08:25:07;4.50;;;2.50;;
23230;SDS011;11784;49.818;8.632;2022-07-21T08:27:32;5.18;;;2.72;;
23230;SDS011;11784;49.818;8.632;2022-07-21T08:29:58;2.95;;;1.80;;
23230;SDS011;11784;49.818;8.632;2022-07-21T08:32:24;4.13;;;2.42;;
23230;SDS011;11784;49.818;8.632;2022-07-21T08:34:49;3.22;;;2.08;;
23230;SDS011;11784;49.818;8.632;2022-07-21T08:37:15;4.35;;;2.42;;
23230;SDS011;11784;49.818;8.632;2022-07-21T08:39:41;6.03;;;2.13;;
23230;SDS011;11784;49.818;8.632;2022-07-21T08:42:07;4.47;;;2.67;;
23230;SDS011;11784;49.818;8.632;2022-07-21T08:44:33;7.38;;;2.00;;
23230;SDS011;11784;49.818;8.632;2022-07-21T08:46:59;6.82;;;2.63;;
23230;SDS011;11784;49.818;8.632;2022-07-21T08:49:25;4.85;;;1.98;;
23230;SDS011;11784;49.818;8.632;2022-07-21T08:51:51;4.38;;;1.73;;
23230;SDS011;11784;49.818;8.632;2022-07-21T08:54:19;4.60;;;2.05;;
23230;SDS011;11784;49.818;8.632;2022-07-21T08:56:45;3.95;;;2.17;;
23230;SDS011;11784;49.818;8.632;2022-07-21T08:59:11;4.32;;;1.67;;
23230;SDS011;11784;49.818;8.632;2022-07-21T09:01:37;5.15;;;2.28;;
23230;SDS011;11784;49.818;8.632;2022-07-21T09:04:19;3.25;;;2.20;;
23230;SDS011;11784;49.818;8.632;2022-07-21T09:06:57;3.25;;;2.38;;
23230;SDS011;11784;49.818;8.632;2022-07-21T09:09:28;2.70;;;1.70;;
23230;SDS011;11784;49.818;8.632;2022-07-21T09:11:56;5.05;;;2.20;;
23230;SDS011;11784;49.818;8.632;2022-07-21T09:14:24;2.95;;;2.08;;
23230;SDS011;11784;49.818;8.632;2022-07-21T09:16:52;2.47;;;1.85;;
23230;SDS011;11784;49.818;8.632;2022-07-21T09:19:26;6.00;;;2.50;;
23230;SDS011;11784;49.818;8.632;2022-07-21T09:21:56;3.80;;;2.30;;
23230;SDS011;11784;49.818;8.632;2022-07-21T09:24:25;3.45;;;2.25;;
23230;SDS011;11784;49.818;8.632;2022-07-21T09:29:24;6.32;;;2.20;;
23230;SDS011;11784;49.818;8.632;2022-07-21T09:31:49;3.78;;;1.85;;
23230;SDS011;11784;49.818;8.632;2022-07-21T09:34:17;4.18;;;2.40;;
23230;SDS011;11784;49.818;8.632;2022-07-21T09:36:56;6.20;;;2.33;;
23230;SDS011;11784;49.818;8.632;2022-07-21T09:39:39;5.20;;;2.88;;
23230;SDS011;11784;49.818;8.632;2022-07-21T09:45:00;2.83;;;2.03;;
23230;SDS011;11784;49.818;8.632;2022-07-21T09:47:28;5.75;;;2.33;;
23230;SDS011;11784;49.818;8.632;2022-07-21T09:49:56;7.93;;;2.33;;
23230;SDS011;11784;49.818;8.632;2022-07-21T09:52:33;3.67;;;1.98;;
23230;SDS011;11784;49.818;8.632;2022-07-21T09:55:02;5.47;;;2.95;;
23230;SDS011;11784;49.818;8.632;2022-07-21T09:57:32;5.20;;;2.33;;
23230;SDS011;11784;49.818;8.632;2022-07-21T09:59:58;3.58;;;1.65;;
23230;SDS011;11784;49.818;8.632;2022-07-21T10:02:25;5.75;;;1.85;;
23230;SDS011;11784;49.818;8.632;2022-07-21T10:07:38;2.75;;;1.88;;
23230;SDS011;11784;49.818;8.632;2022-07-21T10:10:05;3.97;;;1.92;;
23230;SDS011;11784;49.818;8.632;2022-07-21T10:12:32;3.42;;;1.98;;
23230;SDS011;11784;49.818;8.632;2022-07-21T10:14:58;3.60;;;2.10;;
23230;SDS011;11784;49.818;8.632;2022-07-21T10:17:24;2.95;;;2.10;;
23230;SDS011;11784;49.818;8.632;2022-07-21T10:20:00;4.00;;;1.67;;
23230;SDS011;11784;49.818;8.632;2022-07-21T10:25:22;3.53;;;2.08;;
23230;SDS011;11784;49.818;8.632;2022-07-21T10:30:36;4.55;;;2.55;;
23230;SDS011;11784;49.818;8.632;2022-07-21T10:33:03;2.13;;;1.60;;
23230;SDS011;11784;49.818;8.632;2022-07-21T10:35:30;2.00;;;1.60;;
23230;SDS011;11784;49.818;8.632;2022-07-21T10:37:56;4.20;;;2.00;;
23230;SDS011;11784;49.818;8.632;2022-07-21T10:45:30;3.50;;;2.00;;
23230;SDS011;11784;49.818;8.632;2022-07-21T10:47:57;5.70;;;2.17;;
23230;SDS011;11784;49.818;8.632;2022-07-21T10:50:34;3.83;;;1.85;;
23230;SDS011;11784;49.818;8.632;2022-07-21T10:53:03;2.72;;;1.70;;
23230;SDS011;11784;49.818;8.632;2022-07-21T10:55:36;4.60;;;1.77;;
23230;SDS011;11784;49.818;8.632;2022-07-21T11:01:03;2.70;;;1.60;;
23230;SDS011;11784;49.818;8.632;2022-07-21T11:03:30;3.63;;;1.70;;
23230;SDS011;11784;49.818;8.632;2022-07-21T11:06:14;3.55;;;1.40;;
23230;SDS011;11784;49.818;8.632;2022-07-21T11:08:47;2.90;;;1.73;;
23230;SDS011;11784;49.818;8.632;2022-07-21T11:11:25;3.28;;;1.95;;
23230;SDS011;11784;49.818;8.632;2022-07-21T11:14:02;6.25;;;1.60;;
23230;SDS011;11784;49.818;8.632;2022-07-21T11:22:08;2.05;;;1.15;;
23230;SDS011;11784;49.818;8.632;2022-07-21T11:24:36;1.73;;;1.23;;
23230;SDS011;11784;49.818;8.632;2022-07-21T11:29:31;2.38;;;1.38;;
23230;SDS011;11784;49.818;8.632;2022-07-21T11:31:58;4.43;;;1.83;;
23230;SDS011;11784;49.818;8.632;2022-07-21T11:34:36;3.95;;;1.48;;
23230;SDS011;11784;49.818;8.632;2022-07-21T11:37:07;3.05;;;1.42;;
23230;SDS011;11784;49.818;8.632;2022-07-21T11:39:33;2.40;;;1.50;;
23230;SDS011;11784;49.818;8.632;2022-07-21T11:42:04;1.73;;;1.23;;
23230;SDS011;11784;49.818;8.632;2022-07-21T11:44:31;3.65;;;1.75;;
23230;SDS011;11784;49.818;8.632;2022-07-21T11:46:58;2.20;;;1.25;;
23230;SDS011;11784;49.818;8.632;2022-07-21T11:49:26;3.25;;;1.65;;
23230;SDS011;11784;49.818;8.632;2022-07-21T11:51:54;2.60;;;1.38;;
23230;SDS011;11784;49.818;8.632;2022-07-21T11:54:27;4.70;;;1.27;;
23230;SDS011;11784;49.818;8.632;2022-07-21T11:57:12;2.05;;;1.25;;
23230;SDS011;11784;49.818;8.632;2022-07-21T11:59:39;2.17;;;1.30;;
23230;SDS011;11784;49.818;8.632;2022-07-21T12:02:12;3.40;;;1.95;;
23230;SDS011;11784;49.818;8.632;2022-07-21T12:04:38;2.33;;;1.10;;
23230;SDS011;11784;49.818;8.632;2022-07-21T12:07:12;2.78;;;1.15;;
23230;SDS011;11784;49.818;8.632;2022-07-21T12:09:52;2.53;;;1.30;;
23230;SDS011;11784;49.818;8.632;2022-07-21T12:15:18;2.60;;;1.50;;
23230;SDS011;11784;49.818;8.632;2022-07-21T12:20:13;4.85;;;1.85;;
23230;SDS011;11784;49.818;8.632;2022-07-21T12:22:41;3.22;;;1.88;;
23230;SDS011;11784;49.818;8.632;2022-07-21T12:25:15;2.80;;;1.60;;
23230;SDS011;11784;49.818;8.632;2022-07-21T12:27:43;6.13;;;2.45;;
23230;SDS011;11784;49.818;8.632;2022-07-21T12:30:10;3.03;;;1.60;;
23230;SDS011;11784;49.818;8.632;2022-07-21T12:33:20;2.38;;;1.63;;
23230;SDS011;11784;49.818;8.632;2022-07-21T12:38:48;2.92;;;1.55;;
23230;SDS011;11784;49.818;8.632;2022-07-21T12:41:16;3.00;;;1.70;;
23230;SDS011;11784;49.818;8.632;2022-07-21T12:43:52;2.10;;;1.42;;
23230;SDS011;11784;49.818;8.632;2022-07-21T12:46:27;2.92;;;1.98;;
23230;SDS011;11784;49.818;8.632;2022-07-21T12:49:03;5.70;;;1.92;;
23230;SDS011;11784;49.818;8.632;2022-07-21T12:51:30;4.45;;;1.83;;
23230;SDS011;11784;49.818;8.632;2022-07-21T12:53:56;9.82;;;1.88;;
23230;SDS011;11784;49.818;8.632;2022-07-21T12:56:22;2.17;;;1.50;;
23230;SDS011;11784;49.818;8.632;2022-07-21T12:58:50;1.80;;;1.40;;
23230;SDS011;11784;49.818;8.632;2022-07-21T13:01:19;2.53;;;1.73;;
23230;SDS011;11784;49.818;8.632;2022-07-21T13:03:46;4.25;;;1.73;;
23230;SDS011;11784;49.818;8.632;2022-07-21T13:06:12;3.35;;;1.73;;
23230;SDS011;11784;49.818;8.632;2022-07-21T13:08:39;4.78;;;2.20;;
23230;SDS011;11784;49.818;8.632;2022-07-21T13:11:06;4.22;;;1.90;;
23230;SDS011;11784;49.818;8.632;2022-07-21T13:13:33;5.15;;;1.98;;
23230;SDS011;11784;49.818;8.632;2022-07-21T13:15:59;2.85;;;1.98;;
23230;SDS011;11784;49.818;8.632;2022-07-21T13:18:25;4.30;;;2.33;;
23230;SDS011;11784;49.818;8.632;2022-07-21T13:20:52;3.40;;;2.25;;
23230;SDS011;11784;49.818;8.632;2022-07-21T13:23:18;3.78;;;1.65;;
23230;SDS011;11784;49.818;8.632;2022-07-21T13:25:44;5.15;;;2.20;;
23230;SDS011;11784;49.818;8.632;2022-07-21T13:28:10;7.93;;;2.60;;
23230;SDS011;11784;49.818;8.632;2022-07-21T13:30:36;3.25;;;2.17;;
23230;SDS011;11784;49.818;8.632;2022-07-21T13:33:01;3.22;;;1.92;;
23230;SDS011;11784;49.818;8.632;2022-07-21T13:35:27;4.70;;;1.92;;
23230;SDS011;11784;49.818;8.632;2022-07-21T13:37:53;5.07;;;2.30;;
23230;SDS011;11784;49.818;8.632;2022-07-21T13:40:20;6.45;;;2.28;;
23230;SDS011;11784;49.818;8.632;2022-07-21T13:42:46;4.15;;;2.40;;
23230;SDS011;11784;49.818;8.632;2022-07-21T13:45:11;4.85;;;2.67;;
23230;SDS011;11784;49.818;8.632;2022-07-21T13:47:39;2.45;;;2.05;;
23230;SDS011;11784;49.818;8.632;2022-07-21T13:50:05;4.20;;;2.53;;
23230;SDS011;11784;49.818;8.632;2022-07-21T13:52:31;4.97;;;2.40;;
23230;SDS011;11784;49.818;8.632;2022-07-21T13:54:57;6.13;;;2.15;;
23230;SDS011;11784;49.818;8.632;2022-07-21T13:57:23;4.53;;;2.33;;
23230;SDS011;11784;49.818;8.632;2022-07-21T13:59:48;3.72;;;2.08;;
23230;SDS011;11784;49.818;8.632;2022-07-21T14:02:14;3.55;;;2.35;;
23230;SDS011;11784;49.818;8.632;2022-07-21T14:04:39;4.22;;;2.38;;
23230;SDS011;11784;49.818;8.632;2022-07-21T14:07:05;3.05;;;2.13;;
23230;SDS011;11784;49.818;8.632;2022-07-21T14:09:30;2.97;;;2.35;;
23230;SDS011;11784;49.818;8.632;2022-07-21T14:11:56;3.47;;;2.05;;
23230;SDS011;11784;49.818;8.632;2022-07-21T14:14:22;5.43;;;2.33;;
23230;SDS011;11784;49.818;8.632;2022-07-21T14:16:51;3.20;;;2.60;;
23230;SDS011;11784;49.818;8.632;2022-07-21T14:19:18;3.28;;;2.28;;
23230;SDS011;11784;49.818;8.632;2022-07-21T14:21:43;4.90;;;2.30;;
23230;SDS011;11784;49.818;8.632;2022-07-21T14:24:09;3.53;;;2.33;;
23230;SDS011;11784;49.818;8.632;2022-07-21T14:26:53;4.32;;;2.10;;
23230;SDS011;11784;49.818;8.632;2022-07-21T14:29:19;3.83;;;2.00;;
23230;SDS011;11784;49.818;8.632;2022-07-21T14:31:44;3.38;;;2.17;;
23230;SDS011;11784;49.818;8.632;2022-07-21T14:34:10;4.20;;;2.22;;
23230;SDS011;11784;49.818;8.632;2022-07-21T14:36:35;3.90;;;2.33;;
23230;SDS011;11784;49.818;8.632;2022-07-21T14:39:01;4.18;;;2.20;;
23230;SDS011;11784;49.818;8.632;2022-07-21T14:41:27;3.45;;;2.00;;
23230;SDS011;11784;49.818;8.632;2022-07-21T14:43:54;3.83;;;1.70;;
23230;SDS011;11784;49.818;8.632;2022-07-21T14:46:19;8.00;;;2.13;;
23230;SDS011;11784;49.818;8.632;2022-07-21T14:48:45;2.95;;;2.08;;
23230;SDS011;11784;49.818;8.632;2022-07-21T14:51:10;4.35;;;2.10;;
23230;SDS011;11784;49.818;8.632;2022-07-21T14:53:36;2.85;;;1.80;;
23230;SDS011;11784;49.818;8.632;2022-07-21T14:56:01;4.82;;;1.90;;
23230;SDS011;11784;49.818;8.632;2022-07-21T14:58:27;3.20;;;2.08;;
23230;SDS011;11784;49.818;8.632;2022-07-21T15:00:52;3.05;;;1.88;;
23230;SDS011;11784;49.818;8.632;2022-07-21T15:03:18;2.97;;;1.77;;
23230;SDS011;11784;49.818;8.632;2022-07-21T15:05:43;3.40;;;1.75;;
23230;SDS011;11784;49.818;8.632;2022-07-21T15:08:09;3.50;;;1.90;;
23230;SDS011;11784;49.818;8.632;2022-07-21T15:10:36;3.08;;;1.70;;
23230;SDS011;11784;49.818;8.632;2022-07-21T15:13:02;2.95;;;1.83;;
23230;SDS011;11784;49.818;8.632;2022-07-21T15:15:28;5.53;;;1.92;;
23230;SDS011;11784;49.818;8.632;2022-07-21T15:17:53;3.45;;;1.60;;
23230;SDS011;11784;49.818;8.632;2022-07-21T15:20:19;3.30;;;1.88;;
23230;SDS011;11784;49.818;8.632;2022-07-21T15:22:44;3.20;;;1.67;;
23230;SDS011;11784;49.818;8.632;2022-07-21T15:25:10;4.38;;;2.00;;
23230;SDS011;11784;49.818;8.632;2022-07-21T15:27:37;2.45;;;1.55;;